Time;durP1;ratioP1;P1;durP2;ratioP2;P2;SDS_P1;SDS_P2;PMS_P1;PMS_P2;Temp;Humidity;BMP_temperature;BMP_pressure;BME280_temperature;BME280_humidity;BME280_pressure;Samples;Min_cycle;Max_cycle;Signal;HPM_P1;HPM_P2
2023/01/18 00:00:12;;;;;;;10.75;9.30;;;2.30;99.90;;;;;;4926863;29;20565;-71
2023/01/18 00:02:39;;;;;;;9.80;8.90;;;2.30;99.90;;;;;;4917876;29;20248;-71
2023/01/18 00:05:07;;;;;;;10.15;9.15;;;2.30;99.90;;;;;;4918977;29;20283;-71
2023/01/18 00:07:35;;;;;;;9.45;8.45;;;2.30;99.90;;;;;;4930651;29;20234;-71
2023/01/18 00:10:02;;;;;;;9.80;8.90;;;2.30;99.90;;;;;;4923490;29;20755;-71
2023/01/18 00:12:28;;;;;;;9.13;8.30;;;2.30;99.90;;;;;;4926592;29;20315;-71
2023/01/18 00:14:56;;;;;;;10.52;9.52;;;2.40;99.90;;;;;;4930438;29;20256;-71
2023/01/18 00:17:23;;;;;;;11.70;10.60;;;2.30;99.90;;;;;;4931434;29;20208;-71
2023/01/18 00:19:49;;;;;;;13.85;12.35;;;2.30;99.90;;;;;;4931223;29;20214;-71
2023/01/18 00:22:18;;;;;;;12.05;10.75;;;2.40;99.90;;;;;;4927501;29;20273;-71
2023/01/18 00:24:45;;;;;;;13.35;11.82;;;2.40;99.90;;;;;;4931762;29;20197;-71
2023/01/18 00:27:12;;;;;;;10.00;8.95;;;2.40;99.90;;;;;;4919258;29;20225;-71
2023/01/18 00:29:39;;;;;;;10.35;9.40;;;2.30;99.90;;;;;;4932038;29;20677;-71
2023/01/18 00:32:06;;;;;;;11.82;10.27;;;2.30;99.90;;;;;;4927514;29;20221;-71
2023/01/18 00:34:33;;;;;;;10.80;9.77;;;2.20;99.90;;;;;;4930640;29;20229;-71
2023/01/18 00:37:00;;;;;;;11.10;10.00;;;2.10;99.90;;;;;;4931467;29;20289;-71
2023/01/18 00:39:29;;;;;;;10.15;9.25;;;2.10;99.90;;;;;;4931173;29;20215;-71
2023/01/18 00:44:40;;;;;;;10.48;9.50;;;2.00;99.90;;;;;;4924434;29;20209;-71
2023/01/18 00:47:07;;;;;;;10.98;9.98;;;2.00;99.90;;;;;;4929227;29;20763;-71
2023/01/18 00:49:34;;;;;;;11.38;10.27;;;2.00;99.90;;;;;;4919571;29;20663;-71
2023/01/18 00:52:01;;;;;;;10.52;9.43;;;2.00;99.90;;;;;;4930931;29;20263;-71
2023/01/18 00:54:30;;;;;;;11.95;10.70;;;1.90;99.90;;;;;;4927178;29;20264;-71
2023/01/18 00:56:56;;;;;;;11.60;10.50;;;1.90;99.90;;;;;;4935648;29;20287;-71
2023/01/18 00:59:24;;;;;;;12.02;10.93;;;1.90;99.90;;;;;;4932710;29;20213;-71
2023/01/18 01:01:51;;;;;;;12.05;10.85;;;1.90;99.90;;;;;;4925254;29;20248;-71
2023/01/18 01:07:03;;;;;;;10.55;9.55;;;1.90;99.90;;;;;;4932654;29;20540;-71
2023/01/18 01:09:31;;;;;;;11.20;10.10;;;1.90;99.90;;;;;;4931054;29;20230;-70
2023/01/18 01:26:06;;;;;;;11.27;10.18;;;1.90;99.90;;;;;;4928538;29;20292;-70
2023/01/18 01:28:33;;;;;;;12.23;11.02;;;1.90;99.90;;;;;;4936969;29;20650;-71
2023/01/18 01:31:02;;;;;;;11.57;10.48;;;1.90;99.90;;;;;;4930431;29;20285;-71
2023/01/18 01:33:30;;;;;;;12.05;10.95;;;2.00;99.90;;;;;;4930038;29;20595;-71
2023/01/18 01:35:58;;;;;;;12.07;10.93;;;2.00;99.90;;;;;;4932641;29;20217;-71
2023/01/18 01:38:26;;;;;;;11.70;10.48;;;2.30;99.90;;;;;;4934539;29;20207;-70
2023/01/18 01:40:59;;;;;;;11.57;10.45;;;2.00;99.90;;;;;;4930019;29;20208;-71
2023/01/18 01:43:41;;;;;;;11.38;10.27;;;2.00;99.90;;;;;;4926358;29;20714;-70
2023/01/18 01:46:19;;;;;;;11.90;10.80;;;1.90;99.90;;;;;;4933601;29;20260;-70
2023/01/18 01:48:47;;;;;;;12.35;10.60;;;1.90;99.90;;;;;;4931919;29;20198;-71
2023/01/18 01:51:16;;;;;;;12.10;11.05;;;1.90;99.90;;;;;;4933081;29;20669;-71
2023/01/18 01:53:43;;;;;;;12.00;10.80;;;1.90;99.90;;;;;;4925067;29;20247;-71
2023/01/18 01:56:12;;;;;;;11.68;10.48;;;1.90;99.90;;;;;;4933036;29;20240;-70
2023/01/18 01:58:41;;;;;;;14.27;12.85;;;1.90;99.90;;;;;;4933825;29;20750;-70
2023/01/18 02:01:08;;;;;;;12.93;11.40;;;1.90;99.90;;;;;;4933746;29;20199;-71
2023/01/18 02:03:37;;;;;;;12.73;11.52;;;1.90;99.90;;;;;;4921099;29;20203;-70
2023/01/18 02:06:13;;;;;;;11.10;10.00;;;1.80;99.90;;;;;;4930436;29;20829;-71
2023/01/18 02:08:41;;;;;;;13.07;11.85;;;1.80;99.90;;;;;;4930938;29;20289;-71
2023/01/18 02:11:08;;;;;;;11.65;10.57;;;1.80;99.90;;;;;;4931490;29;20261;-71
2023/01/18 02:13:36;;;;;;;12.60;11.30;;;1.80;99.90;;;;;;4924472;29;20200;-70
2023/01/18 02:16:13;;;;;;;12.77;11.63;;;1.80;99.90;;;;;;4925840;29;20285;-70
2023/01/18 02:18:46;;;;;;;13.13;11.82;;;1.80;99.90;;;;;;4929349;29;20491;-70
2023/01/18 02:21:18;;;;;;;13.75;11.90;;;1.80;99.90;;;;;;4932027;29;20201;-70
2023/01/18 02:24:29;;;;;;;13.70;12.30;;;1.80;99.90;;;;;;4921555;29;20211;-71
2023/01/18 02:27:05;;;;;;;12.52;11.32;;;1.80;99.90;;;;;;4922369;29;20260;-71
2023/01/18 02:29:59;;;;;;;13.82;12.43;;;1.80;99.90;;;;;;4930938;29;20211;-70
2023/01/18 02:32:48;;;;;;;14.02;12.63;;;1.80;99.90;;;;;;4923824;29;20217;-71
2023/01/18 02:35:22;;;;;;;13.30;11.93;;;1.70;99.90;;;;;;4935275;29;20299;-71
2023/01/18 02:38:01;;;;;;;11.85;10.75;;;1.80;99.90;;;;;;4929508;29;20197;-70
2023/01/18 02:40:33;;;;;;;13.20;11.93;;;1.80;99.90;;;;;;4932751;29;20204;-71
2023/01/18 02:48:42;;;;;;;14.02;12.63;;;1.70;99.90;;;;;;4924845;29;20333;-70
2023/01/18 02:51:10;;;;;;;15.98;14.38;;;1.70;99.90;;;;;;4929075;29;20205;-70
2023/01/18 02:53:39;;;;;;;16.70;15.10;;;1.70;99.90;;;;;;4923204;29;20237;-70
2023/01/18 02:56:10;;;;;;;16.35;14.75;;;1.70;99.90;;;;;;4935158;29;20209;-70
2023/01/18 02:58:41;;;;;;;16.30;14.60;;;1.70;99.90;;;;;;4931977;29;20634;-70
2023/01/18 03:01:15;;;;;;;15.77;14.05;;;1.70;99.90;;;;;;4926896;29;20202;-71
2023/01/18 03:03:45;;;;;;;18.15;15.30;;;1.80;99.90;;;;;;4925952;29;20298;-70
2023/01/18 03:06:14;;;;;;;17.48;15.43;;;1.70;99.90;;;;;;4933780;29;20508;-71
2023/01/18 03:08:44;;;;;;;17.63;15.20;;;1.70;99.90;;;;;;4931393;29;20212;-71
2023/01/18 03:11:16;;;;;;;17.10;14.75;;;1.70;99.90;;;;;;4926007;29;20201;-71
2023/01/18 03:13:53;;;;;;;17.85;15.63;;;1.70;99.90;;;;;;4925043;29;20202;-71
2023/01/18 03:16:25;;;;;;;18.73;16.38;;;1.60;99.90;;;;;;4920031;29;20236;-71
2023/01/18 03:19:00;;;;;;;20.60;16.58;;;1.70;99.90;;;;;;4935205;29;20301;-71
2023/01/18 03:21:34;;;;;;;18.75;16.20;;;1.70;99.90;;;;;;4927618;29;20711;-70
2023/01/18 03:24:04;;;;;;;21.10;15.82;;;1.60;99.90;;;;;;4929598;29;20198;-71
2023/01/18 03:26:33;;;;;;;19.48;15.80;;;1.70;99.90;;;;;;4933474;29;20701;-70
2023/01/18 03:34:41;;;;;;;16.05;14.07;;;1.60;99.90;;;;;;4927038;29;20200;-70
2023/01/18 03:37:12;;;;;;;16.75;13.48;;;1.60;99.90;;;;;;4934300;29;20615;-70
2023/01/18 03:39:42;;;;;;;16.60;14.05;;;1.60;99.90;;;;;;4930754;29;20206;-71
2023/01/18 03:42:13;;;;;;;15.23;13.52;;;1.60;99.90;;;;;;4923733;29;20783;-71
2023/01/18 03:44:44;;;;;;;18.05;15.30;;;1.60;99.90;;;;;;4928794;29;20300;-71
2023/01/18 03:47:13;;;;;;;16.95;13.60;;;1.60;99.90;;;;;;4930305;29;20221;-71
2023/01/18 03:49:40;;;;;;;16.73;14.73;;;1.60;99.90;;;;;;4927144;29;20268;-71
2023/01/18 03:52:16;;;;;;;17.25;14.68;;;1.60;99.90;;;;;;4927765;29;20268;-71
2023/01/18 03:54:49;;;;;;;17.50;14.23;;;1.50;99.90;;;;;;4931645;29;20197;-70
2023/01/18 03:57:23;;;;;;;17.58;14.57;;;1.50;99.90;;;;;;4933490;29;20247;-71
2023/01/18 03:59:51;;;;;;;15.20;13.63;;;1.60;99.90;;;;;;4927679;29;20200;-71
2023/01/18 04:02:21;;;;;;;19.55;15.70;;;1.60;99.90;;;;;;4931505;29;20652;-71
2023/01/18 04:04:47;;;;;;;16.25;14.55;;;1.60;99.90;;;;;;4931394;29;20202;-71
2023/01/18 04:07:15;;;;;;;16.25;14.55;;;1.70;99.90;;;;;;4931511;29;20756;-71
2023/01/18 04:09:42;;;;;;;15.98;13.75;;;1.60;99.90;;;;;;4922266;29;20217;-71
2023/01/18 04:12:09;;;;;;;15.02;13.43;;;1.70;99.90;;;;;;4930230;29;20678;-71
2023/01/18 04:14:36;;;;;;;15.52;13.90;;;1.70;99.90;;;;;;4920466;29;20663;-71
2023/01/18 04:17:03;;;;;;;15.55;13.75;;;1.60;99.90;;;;;;4929223;29;20215;-71
2023/01/18 04:19:31;;;;;;;17.05;14.68;;;1.60;99.90;;;;;;4925862;29;20212;-71
2023/01/18 04:21:58;;;;;;;16.60;13.70;;;1.50;99.90;;;;;;4924605;29;20242;-70
2023/01/18 04:24:25;;;;;;;15.93;14.05;;;1.50;99.90;;;;;;4924353;29;20234;-70
2023/01/18 04:26:52;;;;;;;14.85;13.25;;;1.50;99.90;;;;;;4931666;29;20689;-70
2023/01/18 04:29:19;;;;;;;14.90;13.30;;;1.50;99.90;;;;;;4927888;29;20318;-70
2023/01/18 04:31:46;;;;;;;15.68;14.07;;;1.60;99.90;;;;;;4924627;29;20219;-70
2023/01/18 04:34:13;;;;;;;15.90;13.48;;;1.60;99.90;;;;;;4921295;29;20205;-70
2023/01/18 04:36:42;;;;;;;15.23;13.63;;;1.60;99.90;;;;;;4931997;29;20567;-70
2023/01/18 04:39:12;;;;;;;13.45;12.05;;;1.50;99.90;;;;;;4929873;29;20198;-71
2023/01/18 04:41:39;;;;;;;16.00;13.25;;;1.50;99.90;;;;;;4926313;29;20228;-71
2023/01/18 04:44:06;;;;;;;13.75;12.35;;;1.50;99.90;;;;;;4933482;29;20247;-70
2023/01/18 04:46:33;;;;;;;14.57;13.07;;;1.50;99.90;;;;;;4935036;29;20201;-70
2023/01/18 04:49:00;;;;;;;13.63;12.23;;;1.50;99.90;;;;;;4939976;29;20229;-71
2023/01/18 04:51:30;;;;;;;13.32;11.93;;;1.40;99.90;;;;;;4931878;29;20331;-70
2023/01/18 04:53:59;;;;;;;14.07;12.68;;;1.40;99.90;;;;;;4932694;29;20205;-70
2023/01/18 04:56:26;;;;;;;12.98;11.30;;;1.30;99.90;;;;;;4935291;29;20236;-70
2023/01/18 04:58:53;;;;;;;12.45;11.20;;;1.30;99.90;;;;;;4929091;29;20198;-70
2023/01/18 05:01:21;;;;;;;14.35;12.95;;;1.30;99.90;;;;;;4928545;29;20232;-70
2023/01/18 05:03:48;;;;;;;11.48;10.40;;;1.30;99.90;;;;;;4920429;29;20289;-71
2023/01/18 05:06:18;;;;;;;12.18;10.98;;;1.30;99.90;;;;;;4933528;29;20197;-71
2023/01/18 05:08:45;;;;;;;13.52;11.02;;;1.20;99.90;;;;;;4925372;29;20233;-72
2023/01/18 05:11:16;;;;;;;10.45;9.45;;;1.20;99.90;;;;;;4929852;29;20222;-71
2023/01/18 05:13:44;;;;;;;10.75;9.32;;;1.20;99.90;;;;;;4928251;29;20272;-70
2023/01/18 05:16:14;;;;;;;10.52;9.52;;;1.10;99.90;;;;;;4930278;29;20202;-70
2023/01/18 05:18:42;;;;;;;9.82;8.80;;;1.20;99.90;;;;;;4930255;29;20197;-70
2023/01/18 05:21:09;;;;;;;9.90;9.00;;;1.20;99.90;;;;;;4918778;29;20858;-70
2023/01/18 05:23:38;;;;;;;9.77;8.77;;;1.10;99.90;;;;;;4934192;29;20201;-71
2023/01/18 05:26:12;;;;;;;8.40;7.70;;;1.20;99.90;;;;;;4926434;29;20202;-70
2023/01/18 05:28:41;;;;;;;8.50;7.65;;;1.20;99.90;;;;;;4933769;29;20249;-70
2023/01/18 05:31:09;;;;;;;8.40;7.60;;;1.10;99.90;;;;;;4923545;29;20562;-70
2023/01/18 05:33:36;;;;;;;8.88;8.05;;;1.20;99.90;;;;;;4923343;29;20236;-70
2023/01/18 05:36:03;;;;;;;8.27;7.57;;;1.10;99.90;;;;;;4926475;29;20261;-73
2023/01/18 05:38:30;;;;;;;8.05;7.30;;;1.10;99.90;;;;;;4928170;29;20201;-72
2023/01/18 05:40:58;;;;;;;8.82;7.93;;;1.10;99.90;;;;;;4913232;29;20208;-70
2023/01/18 05:43:27;;;;;;;7.63;6.85;;;1.10;99.90;;;;;;4929478;29;20202;-70
2023/01/18 05:45:56;;;;;;;9.60;8.20;;;1.10;99.90;;;;;;4931707;29;20197;-70
2023/01/18 05:48:23;;;;;;;11.45;8.77;;;1.10;99.90;;;;;;4939432;29;20614;-70
2023/01/18 05:50:51;;;;;;;9.20;8.40;;;1.10;99.90;;;;;;4927645;29;20198;-70
2023/01/18 05:53:20;;;;;;;11.05;8.23;;;1.10;99.90;;;;;;4946274;29;20232;-70
2023/01/18 05:55:54;;;;;;;8.30;7.50;;;1.10;99.90;;;;;;4936269;29;20539;-70
2023/01/18 05:58:22;;;;;;;9.68;8.82;;;1.10;99.90;;;;;;4932987;29;20696;-70
2023/01/18 06:00:49;;;;;;;11.52;10.32;;;1.10;99.90;;;;;;4923185;29;20337;-73
2023/01/18 06:03:17;;;;;;;11.65;10.60;;;1.10;99.90;;;;;;4928519;29;20666;-70
2023/01/18 06:05:44;;;;;;;13.10;11.75;;;1.10;99.90;;;;;;4937974;29;20196;-70
2023/01/18 06:08:11;;;;;;;10.85;9.85;;;1.00;99.90;;;;;;4927788;29;20276;-70
2023/01/18 06:10:39;;;;;;;10.77;9.07;;;1.10;99.90;;;;;;4936229;29;20200;-70
2023/01/18 06:13:06;;;;;;;10.88;9.77;;;1.10;99.90;;;;;;4938217;29;20205;-71
2023/01/18 06:15:33;;;;;;;11.32;10.23;;;1.10;99.90;;;;;;4932418;29;20665;-70
2023/01/18 06:18:00;;;;;;;10.85;9.80;;;1.00;99.90;;;;;;4932395;29;20197;-70
2023/01/18 06:20:29;;;;;;;12.32;10.80;;;1.10;99.90;;;;;;4920048;29;20273;-70
2023/01/18 06:22:56;;;;;;;10.77;9.68;;;1.10;99.90;;;;;;4922098;29;20681;-70
2023/01/18 06:25:24;;;;;;;11.10;10.10;;;1.10;99.90;;;;;;4929294;29;20336;-70
2023/01/18 06:27:51;;;;;;;10.70;9.65;;;1.10;99.90;;;;;;4921691;29;20232;-70
2023/01/18 06:30:19;;;;;;;9.95;9.05;;;1.10;99.90;;;;;;4922368;29;20202;-70
2023/01/18 06:32:47;;;;;;;10.40;9.38;;;1.10;99.90;;;;;;4925873;29;20705;-70
2023/01/18 06:35:14;;;;;;;11.57;9.45;;;1.10;99.90;;;;;;4925051;29;20210;-69
2023/01/18 06:37:45;;;;;;;14.95;11.07;;;1.10;99.90;;;;;;4930942;29;20580;-70
2023/01/18 06:40:12;;;;;;;10.38;9.27;;;1.10;99.90;;;;;;4930027;29;20595;-70
2023/01/18 06:42:40;;;;;;;10.73;9.63;;;1.20;99.90;;;;;;4931508;29;20227;-70
2023/01/18 06:45:08;;;;;;;12.05;10.73;;;1.20;99.90;;;;;;4939372;29;20197;-70
2023/01/18 06:47:35;;;;;;;10.90;9.80;;;1.20;99.90;;;;;;4931444;29;20229;-70
2023/01/18 06:50:02;;;;;;;9.30;8.40;;;1.20;99.90;;;;;;4938583;29;20199;-70
2023/01/18 06:52:29;;;;;;;13.00;9.13;;;1.10;99.90;;;;;;4934944;29;20222;-70
2023/01/18 06:54:57;;;;;;;11.70;10.52;;;1.10;99.90;;;;;;4945092;29;20221;-70
2023/01/18 06:57:24;;;;;;;10.70;9.60;;;1.10;99.90;;;;;;4936262;29;20206;-70
2023/01/18 06:59:52;;;;;;;11.70;10.50;;;1.10;99.90;;;;;;4937983;29;20201;-70
2023/01/18 07:02:19;;;;;;;12.75;9.98;;;1.10;99.90;;;;;;4924697;29;20316;-69
2023/01/18 07:04:47;;;;;;;10.73;9.63;;;1.10;99.90;;;;;;4934588;29;20596;-70
2023/01/18 07:07:15;;;;;;;10.55;9.45;;;1.10;99.90;;;;;;4928977;29;20205;-69
2023/01/18 07:09:42;;;;;;;11.43;9.60;;;1.20;99.90;;;;;;4938954;29;20440;-71
2023/01/18 07:12:11;;;;;;;14.63;9.52;;;1.20;99.90;;;;;;4938993;29;20222;-70
2023/01/18 07:14:38;;;;;;;12.98;10.77;;;1.20;99.90;;;;;;4930715;29;20680;-70
2023/01/18 07:17:05;;;;;;;12.57;11.25;;;1.20;99.90;;;;;;4937997;29;20200;-70
2023/01/18 07:19:32;;;;;;;13.85;11.88;;;1.20;99.90;;;;;;4942163;29;20300;-69
2023/01/18 07:22:00;;;;;;;14.50;11.85;;;1.10;99.90;;;;;;4934793;29;20219;-70
2023/01/18 07:24:28;;;;;;;11.93;10.73;;;1.20;99.90;;;;;;4938916;29;20681;-71
2023/01/18 07:26:55;;;;;;;14.10;12.80;;;1.10;99.90;;;;;;4934150;29;20202;-71
2023/01/18 07:29:23;;;;;;;14.52;13.13;;;1.10;99.90;;;;;;4935743;29;20271;-70
2023/01/18 07:31:50;;;;;;;14.15;12.75;;;1.10;99.90;;;;;;4919902;29;20213;-70
2023/01/18 07:34:18;;;;;;;14.80;13.27;;;1.10;99.90;;;;;;4928496;29;20713;-71
2023/01/18 07:36:44;;;;;;;14.70;13.30;;;1.10;99.90;;;;;;4927522;29;20562;-70
2023/01/18 07:39:11;;;;;;;15.93;14.32;;;1.00;99.90;;;;;;4928728;29;20199;-71
2023/01/18 07:41:39;;;;;;;14.65;13.15;;;1.00;99.90;;;;;;4927258;29;20693;-71
2023/01/18 07:44:08;;;;;;;17.00;14.98;;;1.00;99.90;;;;;;4930543;29;20205;-70
2023/01/18 07:46:37;;;;;;;15.85;14.25;;;1.00;99.90;;;;;;4925622;29;20199;-71
2023/01/18 07:49:04;;;;;;;15.68;14.18;;;1.00;99.90;;;;;;4933831;29;20244;-70
2023/01/18 07:51:33;;;;;;;15.55;13.38;;;0.90;99.90;;;;;;4925730;29;20229;-70
2023/01/18 07:54:00;;;;;;;15.40;13.90;;;0.90;99.90;;;;;;4921766;29;20194;-70
2023/01/18 07:56:28;;;;;;;15.18;13.77;;;0.80;99.90;;;;;;4929367;29;20598;-71
2023/01/18 07:58:55;;;;;;;16.95;15.25;;;0.80;99.90;;;;;;4931745;29;20204;-70
2023/01/18 08:01:22;;;;;;;17.48;15.63;;;0.70;99.90;;;;;;4925466;29;20313;-70
2023/01/18 08:03:53;;;;;;;15.57;13.98;;;0.80;99.90;;;;;;4929035;29;20209;-69
2023/01/18 08:06:23;;;;;;;18.55;16.75;;;0.70;99.90;;;;;;4923017;29;20590;-71
2023/01/18 08:08:51;;;;;;;17.13;15.32;;;0.70;99.90;;;;;;4926128;29;20304;-70
2023/01/18 08:11:19;;;;;;;17.55;15.85;;;0.70;99.90;;;;;;4926314;29;20229;-70
2023/01/18 08:13:48;;;;;;;17.65;15.85;;;0.70;99.90;;;;;;4925821;29;20233;-69
2023/01/18 08:16:16;;;;;;;15.88;14.43;;;0.80;99.90;;;;;;4923112;29;20229;-70
2023/01/18 08:18:44;;;;;;;16.65;15.02;;;0.70;99.90;;;;;;4928129;29;20272;-71
2023/01/18 08:21:13;;;;;;;15.07;13.65;;;0.70;99.90;;;;;;4930553;29;20213;-69
2023/01/18 08:23:41;;;;;;;14.15;12.73;;;0.80;99.90;;;;;;4927154;29;20286;-69
2023/01/18 08:26:09;;;;;;;15.27;13.70;;;0.80;99.90;;;;;;4925200;29;20221;-69
2023/01/18 08:28:36;;;;;;;14.73;13.32;;;0.70;99.90;;;;;;4930190;29;20681;-69
2023/01/18 08:31:10;;;;;;;15.02;12.85;;;0.80;99.90;;;;;;4924520;29;20721;-69
2023/01/18 08:33:44;;;;;;;14.27;12.85;;;0.80;99.90;;;;;;4928576;29;20336;-69
2023/01/18 08:36:15;;;;;;;13.52;11.32;;;0.80;99.90;;;;;;4919552;29;20196;-69
2023/01/18 08:38:42;;;;;;;13.77;12.52;;;0.90;99.90;;;;;;4924939;29;20288;-69
2023/01/18 08:41:09;;;;;;;14.48;13.20;;;0.90;99.90;;;;;;4919969;29;20614;-70
2023/01/18 08:43:37;;;;;;;14.00;12.60;;;0.90;99.90;;;;;;4923922;29;20205;-70
2023/01/18 08:46:04;;;;;;;13.13;11.95;;;1.00;99.90;;;;;;4918271;29;20614;-71
2023/01/18 08:48:31;;;;;;;14.20;12.88;;;0.90;99.90;;;;;;4920634;29;20221;-70
2023/01/18 08:51:02;;;;;;;12.63;11.43;;;1.00;99.90;;;;;;4925591;29;20280;-69
2023/01/18 08:53:31;;;;;;;14.50;13.10;;;1.00;99.90;;;;;;4927559;29;20659;-69
2023/01/18 08:55:58;;;;;;;13.35;12.00;;;1.00;99.90;;;;;;4916373;29;20204;-70
2023/01/18 08:58:25;;;;;;;13.10;11.80;;;1.00;99.90;;;;;;4913686;29;20251;-70
2023/01/18 09:00:52;;;;;;;13.93;12.57;;;1.00;99.90;;;;;;4923821;29;20229;-69
2023/01/18 09:03:21;;;;;;;14.40;13.00;;;1.00;99.90;;;;;;4918807;29;20201;-70
2023/01/18 09:05:48;;;;;;;12.60;11.40;;;1.10;99.90;;;;;;4917202;29;20286;-69
2023/01/18 09:08:15;;;;;;;13.48;12.23;;;1.10;99.90;;;;;;4918418;29;20670;-71
2023/01/18 09:10:44;;;;;;;13.73;12.43;;;1.00;99.90;;;;;;4926737;29;20723;-69
2023/01/18 09:13:11;;;;;;;13.88;12.57;;;1.10;99.90;;;;;;4919892;29;20194;-70
2023/01/18 09:15:38;;;;;;;13.23;11.93;;;1.10;99.90;;;;;;4919397;29;20535;-70
2023/01/18 09:18:06;;;;;;;12.52;11.23;;;1.10;99.90;;;;;;4925867;29;20253;-70
2023/01/18 09:20:35;;;;;;;12.10;10.90;;;1.10;99.90;;;;;;4920637;29;20326;-70
2023/01/18 09:23:04;;;;;;;11.35;10.35;;;1.20;99.90;;;;;;4927162;29;20587;-70
2023/01/18 09:25:32;;;;;;;12.10;10.90;;;1.20;99.90;;;;;;4923499;29;20212;-70
2023/01/18 09:28:02;;;;;;;11.18;10.18;;;1.20;99.90;;;;;;4922509;29;20221;-70
2023/01/18 09:30:29;;;;;;;12.55;11.35;;;1.20;99.90;;;;;;4928450;29;20233;-70
2023/01/18 09:32:57;;;;;;;12.25;11.00;;;1.20;99.90;;;;;;4921217;29;20209;-70
2023/01/18 09:35:24;;;;;;;11.05;10.05;;;1.30;99.90;;;;;;4922445;29;20206;-70
2023/01/18 09:37:51;;;;;;;11.70;10.55;;;1.30;99.90;;;;;;4925773;29;20229;-70
2023/01/18 09:40:20;;;;;;;11.90;10.80;;;1.30;99.90;;;;;;4935141;29;20631;-70
2023/01/18 09:42:51;;;;;;;12.38;11.20;;;1.30;99.90;;;;;;4927551;29;20216;-68
2023/01/18 09:45:31;;;;;;;11.10;10.10;;;1.30;99.90;;;;;;4933143;29;20206;-70
2023/01/18 09:48:02;;;;;;;9.88;8.90;;;1.30;99.90;;;;;;4916107;29;20201;-70
2023/01/18 09:50:32;;;;;;;10.20;9.25;;;1.20;99.90;;;;;;4925797;29;20711;-70
2023/01/18 09:53:10;;;;;;;9.50;8.60;;;1.20;99.90;;;;;;4925518;29;20215;-70
2023/01/18 09:55:47;;;;;;;10.07;9.18;;;1.20;99.90;;;;;;4927642;29;20199;-71
2023/01/18 09:58:36;;;;;;;9.75;8.88;;;1.30;99.90;;;;;;4930741;29;20280;-70
2023/01/18 10:01:10;;;;;;;8.95;8.05;;;1.30;99.90;;;;;;4927723;29;20235;-70
2023/01/18 10:03:47;;;;;;;9.43;8.40;;;1.30;99.90;;;;;;4930022;29;20201;-70
2023/01/18 10:06:21;;;;;;;8.90;8.00;;;1.30;99.90;;;;;;4927161;29;20233;-71
2023/01/18 10:08:55;;;;;;;9.90;9.10;;;1.40;99.90;;;;;;4934934;29;20233;-70
2023/01/18 10:11:30;;;;;;;9.93;8.93;;;1.40;99.90;;;;;;4934369;29;20257;-70
2023/01/18 10:14:06;;;;;;;9.20;8.40;;;1.40;99.90;;;;;;4932081;29;20658;-71
2023/01/18 10:16:36;;;;;;;9.00;8.20;;;1.50;99.90;;;;;;4933133;29;20199;-70
2023/01/18 10:19:04;;;;;;;9.25;8.32;;;1.60;99.90;;;;;;4929262;29;20245;-71
2023/01/18 10:21:42;;;;;;;10.43;9.10;;;1.60;99.90;;;;;;4927792;29;20285;-71
2023/01/18 10:24:27;;;;;;;9.95;9.00;;;1.60;99.90;;;;;;4918238;29;20197;-71
2023/01/18 10:27:04;;;;;;;10.20;8.90;;;1.60;99.90;;;;;;4930652;29;20201;-70
2023/01/18 10:29:44;;;;;;;9.85;8.68;;;1.70;99.90;;;;;;4934251;29;20271;-70
2023/01/18 10:32:16;;;;;;;10.07;9.18;;;1.70;99.90;;;;;;4928290;29;20222;-71
2023/01/18 10:34:48;;;;;;;11.77;9.70;;;1.70;99.90;;;;;;4920677;29;20213;-71
2023/01/18 10:37:22;;;;;;;10.30;9.30;;;1.70;99.90;;;;;;4933954;29;20194;-71
2023/01/18 10:39:53;;;;;;;10.57;8.80;;;1.60;99.90;;;;;;4921100;29;20695;-70
2023/01/18 10:42:22;;;;;;;8.98;8.18;;;1.70;99.90;;;;;;4921676;29;20232;-70
2023/01/18 10:44:51;;;;;;;10.98;9.48;;;1.70;99.90;;;;;;4920401;29;20632;-71
2023/01/18 10:47:20;;;;;;;9.50;8.55;;;1.70;99.90;;;;;;4924167;29;20249;-72
2023/01/18 10:49:50;;;;;;;10.70;9.27;;;1.80;99.90;;;;;;4924820;29;20246;-70
2023/01/18 10:52:19;;;;;;;8.85;7.97;;;1.90;99.90;;;;;;4922843;29;20225;-71
2023/01/18 10:54:50;;;;;;;9.43;8.43;;;2.10;99.90;;;;;;4930448;29;20796;-71
2023/01/18 10:57:22;;;;;;;11.30;9.15;;;2.30;99.90;;;;;;4924551;29;20202;-71
2023/01/18 10:59:51;;;;;;;8.50;7.63;;;2.40;99.90;;;;;;4927891;29;20203;-72
2023/01/18 11:02:28;;;;;;;10.70;8.00;;;2.60;99.90;;;;;;4929668;29;20620;-71
2023/01/18 11:05:01;;;;;;;9.70;7.88;;;2.70;99.90;;;;;;4918908;29;20198;-70
2023/01/18 11:07:29;;;;;;;8.55;7.47;;;2.80;99.90;;;;;;4925629;29;20292;-71
2023/01/18 11:09:58;;;;;;;11.70;9.77;;;2.90;99.90;;;;;;4930213;29;20700;-72
2023/01/18 11:12:36;;;;;;;8.43;7.00;;;3.00;99.90;;;;;;4932016;29;20204;-71
2023/01/18 11:15:22;;;;;;;9.50;7.63;;;3.00;99.90;;;;;;4928897;29;20363;-72
2023/01/18 11:18:10;;;;;;;8.77;7.95;;;3.10;99.90;;;;;;4926209;29;20199;-72
2023/01/18 11:20:46;;;;;;;7.35;6.65;;;3.10;99.90;;;;;;4930556;29;20594;-71
2023/01/18 11:23:24;;;;;;;8.90;8.00;;;3.20;99.90;;;;;;4929811;29;20298;-72
2023/01/18 11:25:57;;;;;;;9.15;7.60;;;3.20;99.90;;;;;;4923610;29;20371;-72
2023/01/18 11:28:28;;;;;;;9.60;6.53;;;3.20;99.90;;;;;;4926871;29;20207;-72
2023/01/18 11:31:08;;;;;;;8.30;6.50;;;3.20;99.90;;;;;;4932017;29;20231;-72
2023/01/18 11:33:47;;;;;;;7.20;6.60;;;3.00;99.90;;;;;;4923450;29;20200;-72
2023/01/18 11:36:14;;;;;;;7.47;6.72;;;2.90;99.90;;;;;;4924455;29;20298;-72
2023/01/18 11:38:41;;;;;;;7.60;6.90;;;2.80;99.90;;;;;;4924846;29;20267;-71
2023/01/18 11:41:18;;;;;;;6.80;6.20;;;2.80;99.90;;;;;;4932449;29;20223;-72
2023/01/18 11:44:04;;;;;;;7.15;6.32;;;2.70;99.90;;;;;;4927805;29;20205;-72
2023/01/18 11:46:41;;;;;;;8.95;6.20;;;2.70;99.90;;;;;;4928988;29;20613;-71
2023/01/18 11:49:21;;;;;;;8.40;7.20;;;2.80;99.90;;;;;;4919450;29;20202;-71
2023/01/18 11:51:52;;;;;;;8.23;6.53;;;2.80;99.90;;;;;;4921798;29;20227;-79
2023/01/18 11:54:26;;;;;;;10.00;7.47;;;2.90;99.90;;;;;;4930878;29;20205;-71
2023/01/18 11:56:55;;;;;;;7.60;6.90;;;2.90;99.90;;;;;;4932643;29;20574;-72
2023/01/18 11:59:28;;;;;;;7.97;7.18;;;2.90;99.90;;;;;;4922296;29;20321;-72
2023/01/18 12:02:35;;;;;;;8.30;7.50;;;2.90;99.90;;;;;;4915236;29;20254;-71
2023/01/18 12:05:25;;;;;;;8.63;7.07;;;3.00;99.90;;;;;;4915417;29;20196;-72
2023/01/18 12:08:03;;;;;;;8.35;7.15;;;3.00;99.90;;;;;;4915151;29;20307;-72
2023/01/18 12:10:41;;;;;;;9.82;7.75;;;2.90;99.90;;;;;;4923393;29;20293;-72
2023/01/18 12:13:29;;;;;;;7.90;6.70;;;2.90;99.90;;;;;;4932426;29;20295;-72
2023/01/18 12:16:07;;;;;;;8.00;7.20;;;2.70;99.90;;;;;;4932336;29;20293;-72
2023/01/18 12:19:12;;;;;;;8.70;7.40;;;2.70;99.90;;;;;;4934391;29;20193;-73
2023/01/18 12:21:56;;;;;;;8.10;7.05;;;2.60;99.90;;;;;;4915288;29;20788;-72
2023/01/18 12:24:39;;;;;;;8.35;7.05;;;2.50;99.90;;;;;;4927024;29;20274;-73
2023/01/18 12:27:15;;;;;;;7.25;6.63;;;2.40;99.90;;;;;;4916701;29;20666;-73
2023/01/18 12:30:03;;;;;;;10.13;6.85;;;2.30;99.90;;;;;;4925898;29;20238;-72
2023/01/18 12:32:53;;;;;;;7.10;6.40;;;2.30;99.90;;;;;;4923372;29;20205;-73
2023/01/18 12:35:35;;;;;;;7.28;6.20;;;2.20;99.90;;;;;;4930171;29;20204;-72
2023/01/18 12:38:16;;;;;;;8.70;7.25;;;2.20;99.90;;;;;;4930563;29;20197;-74
2023/01/18 12:41:10;;;;;;;7.97;6.90;;;2.20;99.90;;;;;;4922829;29;20220;-74
2023/01/18 12:43:46;;;;;;;7.50;5.40;;;2.20;99.90;;;;;;4930061;29;20202;-73
2023/01/18 12:46:20;;;;;;;8.23;6.53;;;2.20;99.90;;;;;;4930849;29;20237;-72
2023/01/18 12:48:53;;;;;;;5.88;5.30;;;2.20;99.90;;;;;;4930359;29;20747;-73
2023/01/18 12:51:22;;;;;;;6.35;5.60;;;2.20;99.90;;;;;;4924455;29;20620;-73
2023/01/18 12:53:57;;;;;;;6.95;6.13;;;2.30;99.90;;;;;;4924849;29;20656;-73
2023/01/18 12:56:27;;;;;;;6.85;6.25;;;2.40;99.90;;;;;;4928415;29;20292;-73
2023/01/18 12:58:57;;;;;;;7.60;6.20;;;2.40;99.90;;;;;;4921802;29;20202;-73
2023/01/18 13:01:29;;;;;;;6.80;6.20;;;2.50;99.90;;;;;;4922006;29;20306;-73
2023/01/18 13:04:01;;;;;;;7.72;6.20;;;2.50;99.90;;;;;;4930371;29;20218;-73
2023/01/18 13:06:30;;;;;;;6.10;5.47;;;2.40;99.90;;;;;;4929433;29;20203;-73
2023/01/18 13:09:02;;;;;;;6.97;6.32;;;2.40;99.90;;;;;;4928383;29;20206;-72
2023/01/18 13:11:33;;;;;;;6.82;6.05;;;2.40;99.90;;;;;;4926174;29;20232;-72
2023/01/18 13:14:06;;;;;;;11.63;9.02;;;2.40;99.90;;;;;;4930155;29;20197;-72
2023/01/18 13:16:44;;;;;;;6.72;6.03;;;2.40;99.90;;;;;;4925101;29;20262;-79
2023/01/18 13:19:13;;;;;;;7.88;7.15;;;2.40;99.90;;;;;;4918366;29;20570;-74
2023/01/18 13:21:55;;;;;;;7.20;6.50;;;2.30;99.90;;;;;;4926250;29;20211;-74
2023/01/18 13:24:38;;;;;;;7.72;6.78;;;2.30;99.90;;;;;;4928252;29;20283;-74
2023/01/18 13:27:11;;;;;;;7.55;6.38;;;2.30;99.90;;;;;;4921342;29;20602;-74
2023/01/18 13:29:39;;;;;;;9.60;7.40;;;2.20;99.90;;;;;;4927421;29;20284;-74
2023/01/18 13:32:26;;;;;;;7.70;7.00;;;2.30;99.90;;;;;;4928945;29;20290;-74
2023/01/18 13:35:01;;;;;;;7.88;6.95;;;2.30;99.90;;;;;;4927811;29;20214;-73